Time;durP1;ratioP1;P1;durP2;ratioP2;P2;SDS_P1;SDS_P2;PMS_P1;PMS_P2;Temp;Humidity;BMP_temperature;BMP_pressure;BME280_temperature;BME280_humidity;BME280_pressure;Samples;Min_cycle;Max_cycle;Signal;HPM_P1;HPM_P2
2021/12/21 00:00:00;;;;;;;7.80;5.78;;;3.30;1.00;;;;;;5034888;28;20229;-79
2021/12/21 00:02:27;;;;;;;8.70;6.32;;;3.30;1.00;;;;;;5034719;28;20331;-77
2021/12/21 00:04:55;;;;;;;8.13;5.75;;;3.30;1.00;;;;;;5045560;28;20265;-77
2021/12/21 00:07:21;;;;;;;11.40;6.15;;;3.30;1.00;;;;;;5055984;28;20222;-77
2021/12/21 00:09:48;;;;;;;11.82;7.03;;;3.30;1.00;;;;;;5035145;28;20288;-77
2021/12/21 00:12:18;;;;;;;11.15;7.43;;;3.20;1.00;;;;;;5034528;28;23622;-77
2021/12/21 00:14:57;;;;;;;9.70;7.85;;;3.30;1.00;;;;;;5039417;28;20255;-77
2021/12/21 00:17:45;;;;;;;8.88;7.75;;;3.30;1.00;;;;;;5029467;28;20277;-76
2021/12/21 00:20:27;;;;;;;9.77;7.85;;;3.30;1.00;;;;;;5029515;28;20385;-79
2021/12/21 00:25:40;;;;;;;10.88;7.50;;;3.20;1.00;;;;;;5018297;28;20922;-77
2021/12/21 00:28:07;;;;;;;10.45;7.40;;;3.20;1.00;;;;;;5035296;28;20287;-77
2021/12/21 00:30:33;;;;;;;10.23;7.63;;;3.20;1.00;;;;;;5051586;28;20218;-77
2021/12/21 00:33:00;;;;;;;9.60;7.22;;;3.10;1.00;;;;;;5028449;28;20217;-79
2021/12/21 00:35:28;;;;;;;9.05;7.60;;;3.10;1.00;;;;;;5025099;28;20212;-77
2021/12/21 00:37:56;;;;;;;11.55;7.55;;;3.10;1.00;;;;;;5031999;28;21096;-78
2021/12/21 00:40:23;;;;;;;9.95;6.95;;;3.20;1.00;;;;;;5025588;28;20234;-77
2021/12/21 00:42:50;;;;;;;8.60;7.32;;;3.20;1.00;;;;;;5047916;28;20417;-76
2021/12/21 00:45:17;;;;;;;10.45;6.45;;;3.20;1.00;;;;;;5044022;28;20805;-77
2021/12/21 00:47:47;;;;;;;9.00;6.53;;;3.20;1.00;;;;;;5025395;28;20218;-77
2021/12/21 00:50:17;;;;;;;8.57;6.40;;;3.20;1.00;;;;;;5021960;28;20232;-77
2021/12/21 00:52:47;;;;;;;7.75;6.10;;;3.20;1.00;;;;;;5024759;28;24124;-78
2021/12/21 00:55:13;;;;;;;10.65;6.07;;;3.20;1.00;;;;;;5027075;28;20225;-79
2021/12/21 00:57:40;;;;;;;7.47;6.25;;;3.20;1.00;;;;;;5023310;28;20219;-77
2021/12/21 01:00:09;;;;;;;10.52;5.85;;;3.20;1.00;;;;;;5030178;28;20229;-77
2021/12/21 01:02:36;;;;;;;8.30;5.68;;;3.10;1.00;;;;;;5030371;28;20711;-77
2021/12/21 01:05:06;;;;;;;12.55;7.05;;;3.10;1.00;;;;;;5030241;28;20248;-78
2021/12/21 01:07:37;;;;;;;7.00;5.63;;;3.00;1.00;;;;;;5035145;28;20271;-78
2021/12/21 01:10:41;;;;;;;12.48;6.40;;;3.00;1.00;;;;;;5034575;28;20230;-77
2021/12/21 01:13:15;;;;;;;9.00;5.80;;;3.00;1.00;;;;;;5030885;28;20222;-79
2021/12/21 01:16:00;;;;;;;6.50;4.60;;;3.00;1.00;;;;;;5039238;28;20383;-78
2021/12/21 01:18:34;;;;;;;6.65;4.40;;;3.00;1.00;;;;;;5049072;28;20220;-77
2021/12/21 01:21:09;;;;;;;7.22;4.60;;;3.10;1.00;;;;;;5051458;28;20275;-78
2021/12/21 01:23:58;;;;;;;7.03;4.70;;;3.10;1.00;;;;;;5057224;28;20260;-78
2021/12/21 01:26:33;;;;;;;7.10;4.30;;;3.10;1.00;;;;;;5056837;28;20214;-77
2021/12/21 01:29:09;;;;;;;6.05;4.78;;;3.10;1.00;;;;;;5056783;28;21390;-78
2021/12/21 01:31:45;;;;;;;5.43;3.78;;;3.10;1.00;;;;;;5048985;28;20236;-77
2021/12/21 01:34:24;;;;;;;7.93;4.53;;;3.10;1.00;;;;;;5057553;28;20370;-77
2021/12/21 01:36:57;;;;;;;15.82;6.38;;;3.10;1.00;;;;;;5048681;28;20226;-77
2021/12/21 01:42:18;;;;;;;8.18;4.50;;;3.00;1.00;;;;;;5065740;28;20237;-77
2021/12/21 01:50:10;;;;;;;7.20;3.92;;;2.90;1.00;;;;;;5043140;28;20689;-77
2021/12/21 01:52:37;;;;;;;6.10;4.22;;;2.90;1.00;;;;;;5049363;28;20296;-76
2021/12/21 01:55:04;;;;;;;6.97;4.13;;;2.90;1.00;;;;;;5051263;28;20230;-76
2021/12/21 01:57:33;;;;;;;6.53;3.88;;;3.00;1.00;;;;;;5035951;28;20256;-77
2021/12/21 02:00:00;;;;;;;7.60;4.38;;;3.00;1.00;;;;;;5044898;28;20226;-77
2021/12/21 02:02:26;;;;;;;8.43;6.45;;;3.00;1.00;;;;;;5037825;28;20422;-79
2021/12/21 02:04:53;;;;;;;6.22;4.78;;;3.00;1.00;;;;;;5045488;28;21331;-77
2021/12/21 02:07:20;;;;;;;8.23;4.47;;;3.00;1.00;;;;;;5044359;28;20260;-77
2021/12/21 02:09:46;;;;;;;7.82;5.07;;;3.00;1.00;;;;;;5046830;28;20230;-77
2021/12/21 02:12:17;;;;;;;8.35;4.70;;;3.00;1.00;;;;;;5069909;28;20271;-77
2021/12/21 02:14:53;;;;;;;6.70;4.93;;;3.00;1.00;;;;;;5051470;28;20319;-77
2021/12/21 02:17:46;;;;;;;6.07;4.80;;;3.10;1.00;;;;;;5045398;28;20240;-76
2021/12/21 02:20:21;;;;;;;6.85;4.45;;;3.10;1.00;;;;;;5031913;28;20236;-79
2021/12/21 02:22:54;;;;;;;8.07;5.53;;;3.20;1.00;;;;;;5029154;28;20229;-79
2021/12/21 02:28:31;;;;;;;8.25;4.22;;;3.20;1.00;;;;;;5031332;28;20225;-78
2021/12/21 02:30:57;;;;;;;9.38;4.57;;;3.20;1.00;;;;;;5027692;28;20289;-77
2021/12/21 02:33:26;;;;;;;8.52;5.32;;;3.20;1.00;;;;;;5022580;28;20741;-78
2021/12/21 02:35:57;;;;;;;10.43;4.97;;;3.20;1.00;;;;;;5027238;28;20225;-79
2021/12/21 02:38:24;;;;;;;9.48;5.72;;;3.20;1.00;;;;;;5025201;28;20233;-78
2021/12/21 02:40:51;;;;;;;8.93;5.78;;;3.20;1.00;;;;;;5024523;28;20233;-76
2021/12/21 02:43:18;;;;;;;10.80;6.03;;;3.20;1.00;;;;;;5031170;28;20243;-77
2021/12/21 02:45:45;;;;;;;9.48;5.60;;;3.20;1.00;;;;;;5024840;28;20316;-78
2021/12/21 02:48:12;;;;;;;12.27;6.50;;;3.20;1.00;;;;;;5025573;28;20332;-78
2021/12/21 02:50:40;;;;;;;10.45;5.78;;;3.20;1.00;;;;;;5026168;28;20324;-78
2021/12/21 02:53:09;;;;;;;11.88;6.60;;;3.20;1.00;;;;;;5019901;28;20234;-78
2021/12/21 02:55:37;;;;;;;7.93;6.10;;;3.20;1.00;;;;;;5023026;28;20309;-78
2021/12/21 02:58:04;;;;;;;10.20;6.45;;;3.20;1.00;;;;;;5030705;28;20230;-78
2021/12/21 03:00:32;;;;;;;9.23;7.05;;;3.20;1.00;;;;;;5031866;28;20229;-78
2021/12/21 03:03:06;;;;;;;10.80;7.10;;;3.20;1.00;;;;;;5029146;28;20232;-78
2021/12/21 03:05:33;;;;;;;8.75;6.63;;;3.20;1.00;;;;;;5029723;28;20328;-78
2021/12/21 03:08:09;;;;;;;9.02;7.03;;;3.20;1.00;;;;;;5018275;28;20221;-78
2021/12/21 03:10:45;;;;;;;7.47;6.03;;;3.10;1.00;;;;;;5026264;28;20268;-78
2021/12/21 03:15:58;;;;;;;11.40;7.90;;;3.00;1.00;;;;;;5008177;28;20233;-79
2021/12/21 03:18:25;;;;;;;12.07;6.88;;;3.00;1.00;;;;;;5018688;28;21027;-78
2021/12/21 03:20:52;;;;;;;9.85;7.00;;;3.00;1.00;;;;;;5019579;28;20865;-77
2021/12/21 03:23:18;;;;;;;10.18;6.93;;;3.00;1.00;;;;;;5022012;28;20243;-78
2021/12/21 03:25:46;;;;;;;8.77;6.90;;;3.00;1.00;;;;;;5025892;28;20202;-79
2021/12/21 03:28:14;;;;;;;12.38;7.32;;;3.00;1.00;;;;;;5032066;28;21477;-79
2021/12/21 03:30:41;;;;;;;20.25;7.95;;;3.00;1.00;;;;;;5052281;28;20297;-77
2021/12/21 03:33:07;;;;;;;10.43;6.38;;;3.00;1.00;;;;;;5045417;28;20344;-79
2021/12/21 03:35:34;;;;;;;10.82;6.45;;;3.00;1.00;;;;;;5026023;28;20237;-79
2021/12/21 03:38:01;;;;;;;12.65;6.85;;;3.00;1.00;;;;;;5027934;28;20340;-79
2021/12/21 03:40:31;;;;;;;9.38;6.95;;;2.90;1.00;;;;;;5026092;28;20305;-79
2021/12/21 03:43:00;;;;;;;9.02;6.40;;;2.90;1.00;;;;;;5029542;28;21284;-79
2021/12/21 03:45:30;;;;;;;11.27;7.20;;;3.00;1.00;;;;;;5023227;28;20261;-79
2021/12/21 03:47:57;;;;;;;8.73;6.53;;;2.90;1.00;;;;;;5030946;28;20218;-79
2021/12/21 03:50:23;;;;;;;8.98;7.47;;;2.90;1.00;;;;;;5023553;28;20420;-78
2021/12/21 03:52:50;;;;;;;14.07;8.48;;;2.90;1.00;;;;;;5031311;28;20276;-79
2021/12/21 03:55:17;;;;;;;7.57;6.40;;;2.80;1.00;;;;;;5028746;28;20226;-78
2021/12/21 03:57:43;;;;;;;9.38;6.93;;;2.80;1.00;;;;;;5027832;28;20229;-79
2021/12/21 04:00:15;;;;;;;9.93;7.53;;;2.80;1.00;;;;;;5027545;28;20641;-78
2021/12/21 04:02:42;;;;;;;8.63;6.93;;;2.80;1.00;;;;;;5021767;28;20281;-79
2021/12/21 04:05:09;;;;;;;12.32;8.05;;;2.80;1.00;;;;;;5029302;28;20230;-79
2021/12/21 04:07:36;;;;;;;12.18;8.13;;;2.80;1.00;;;;;;5027292;28;20723;-78
2021/12/21 04:10:05;;;;;;;13.48;7.30;;;2.80;1.00;;;;;;5032285;28;21009;-78
2021/12/21 04:12:33;;;;;;;10.57;8.32;;;2.70;1.00;;;;;;5025552;28;20712;-79
2021/12/21 04:15:03;;;;;;;11.85;9.80;;;2.70;1.00;;;;;;5029609;28;20229;-78
2021/12/21 04:17:31;;;;;;;10.60;8.05;;;2.60;1.00;;;;;;5036452;28;20293;-77
2021/12/21 04:19:58;;;;;;;13.18;9.00;;;2.60;1.00;;;;;;5029368;28;20230;-78
2021/12/21 04:22:25;;;;;;;12.05;8.95;;;2.50;1.00;;;;;;5035431;28;20296;-79
2021/12/21 04:24:51;;;;;;;11.50;9.88;;;2.50;1.00;;;;;;5028555;28;20257;-79
2021/12/21 04:27:19;;;;;;;15.95;9.18;;;2.50;1.00;;;;;;5029831;28;20240;-78
2021/12/21 04:29:46;;;;;;;11.55;9.18;;;2.50;1.00;;;;;;5030388;28;20221;-76
2021/12/21 04:32:13;;;;;;;13.80;9.73;;;2.50;1.00;;;;;;5028959;28;20325;-77
2021/12/21 04:34:42;;;;;;;13.50;9.88;;;2.60;1.00;;;;;;5031321;28;20248;-78
2021/12/21 04:37:10;;;;;;;12.82;11.05;;;2.60;1.00;;;;;;5030649;28;20283;-78
2021/12/21 04:39:42;;;;;;;16.27;9.45;;;2.70;1.00;;;;;;5034580;28;20225;-78
2021/12/21 04:42:09;;;;;;;16.00;10.90;;;2.70;1.00;;;;;;5031604;28;20216;-76
2021/12/21 04:44:36;;;;;;;13.57;10.93;;;2.80;1.00;;;;;;5031445;28;20241;-77
2021/12/21 04:47:04;;;;;;;19.20;10.30;;;2.80;1.00;;;;;;5035249;28;20447;-79
2021/12/21 04:49:30;;;;;;;16.88;10.20;;;2.90;1.00;;;;;;5058405;28;20464;-77
2021/12/21 04:51:58;;;;;;;18.88;10.55;;;2.90;1.00;;;;;;5056105;28;21131;-78
2021/12/21 04:54:25;;;;;;;18.60;11.85;;;2.90;1.00;;;;;;5033751;28;20224;-78
2021/12/21 04:56:52;;;;;;;14.40;11.07;;;3.00;1.00;;;;;;5031765;28;20230;-77
2021/12/21 04:59:20;;;;;;;15.05;11.43;;;3.00;1.00;;;;;;5030019;28;20766;-78
2021/12/21 05:01:47;;;;;;;16.13;10.15;;;3.00;1.00;;;;;;5027426;28;20229;-78
2021/12/21 05:04:14;;;;;;;14.40;10.70;;;3.00;1.00;;;;;;5029158;28;20347;-77
2021/12/21 05:06:41;;;;;;;21.27;11.48;;;3.00;1.00;;;;;;5034999;28;20729;-78
2021/12/21 05:09:13;;;;;;;17.73;10.20;;;3.00;1.00;;;;;;5042826;28;21672;-78
2021/12/21 05:11:42;;;;;;;16.98;11.50;;;3.00;1.00;;;;;;5028754;28;20241;-78
2021/12/21 05:14:09;;;;;;;13.75;10.00;;;3.00;1.00;;;;;;5031329;28;20308;-76
2021/12/21 05:16:37;;;;;;;16.13;10.68;;;3.00;1.00;;;;;;5028841;28;20217;-79
2021/12/21 05:19:04;;;;;;;12.98;9.55;;;3.00;1.00;;;;;;5028821;28;20317;-78
2021/12/21 05:21:31;;;;;;;15.18;10.50;;;3.00;1.00;;;;;;5029378;28;21071;-78
2021/12/21 05:23:58;;;;;;;12.35;9.80;;;3.00;1.00;;;;;;5030690;28;20225;-80
2021/12/21 05:26:26;;;;;;;15.32;10.57;;;3.10;1.00;;;;;;5034367;28;23378;-78
2021/12/21 05:28:53;;;;;;;10.82;9.30;;;3.00;1.00;;;;;;5031622;28;21279;-86
2021/12/21 05:31:20;;;;;;;16.70;9.65;;;3.10;1.00;;;;;;5033309;28;20307;-82
2021/12/21 05:33:50;;;;;;;15.65;10.15;;;3.00;1.00;;;;;;5037096;28;21521;-83
2021/12/21 05:36:21;;;;;;;13.00;8.90;;;3.10;1.00;;;;;;5036147;28;20229;-82
2021/12/21 05:38:56;;;;;;;16.98;9.65;;;3.00;1.00;;;;;;5029933;28;20221;-79
2021/12/21 05:41:27;;;;;;;18.92;11.35;;;3.00;1.00;;;;;;5027509;28;20229;-81
2021/12/21 05:43:56;;;;;;;13.02;10.10;;;3.00;1.00;;;;;;5033800;28;20328;-80
2021/12/21 05:46:24;;;;;;;14.20;9.90;;;3.00;1.00;;;;;;5045089;28;20229;-81
2021/12/21 05:48:52;;;;;;;14.45;9.70;;;3.00;1.00;;;;;;5027405;28;20229;-82
2021/12/21 05:51:20;;;;;;;15.93;8.60;;;3.00;1.00;;;;;;5031177;28;20247;-80
2021/12/21 05:53:47;;;;;;;14.80;10.35;;;3.00;1.00;;;;;;5029265;28;20904;-81
2021/12/21 05:56:14;;;;;;;12.02;9.25;;;3.00;1.00;;;;;;5029047;28;20226;-81
2021/12/21 05:58:40;;;;;;;15.10;8.77;;;3.10;1.00;;;;;;5028871;28;20336;-81
2021/12/21 06:01:08;;;;;;;12.50;9.48;;;3.00;1.00;;;;;;5035839;28;21101;-79
2021/12/21 06:03:35;;;;;;;17.20;10.20;;;3.00;1.00;;;;;;5044091;28;20233;-79
2021/12/21 06:06:02;;;;;;;12.77;8.45;;;3.10;1.00;;;;;;5062721;28;20217;-80
2021/12/21 06:08:29;;;;;;;15.82;10.02;;;3.10;1.00;;;;;;5061398;28;20229;-81
2021/12/21 06:10:56;;;;;;;15.00;10.30;;;3.10;1.00;;;;;;5060347;28;20232;-81
2021/12/21 06:14:01;;;;;;;15.65;10.13;;;3.10;1.00;;;;;;5064345;28;20215;-81
2021/12/21 06:27:24;;;;;;;14.65;9.07;;;3.00;1.00;;;;;;5035980;28;20229;-80
2021/12/21 06:29:52;;;;;;;18.17;12.68;;;3.00;1.00;;;;;;5036612;28;20244;-84
2021/12/21 06:32:20;;;;;;;16.17;10.23;;;3.10;1.00;;;;;;5029999;28;20322;-82
2021/12/21 06:34:48;;;;;;;9.70;8.00;;;3.10;1.00;;;;;;5031323;28;20218;-81
2021/12/21 06:37:15;;;;;;;12.45;8.73;;;3.10;1.00;;;;;;5030578;28;20226;-83
2021/12/21 06:39:42;;;;;;;18.00;10.90;;;3.10;1.00;;;;;;5029449;28;21080;-80
2021/12/21 06:42:11;;;;;;;25.83;16.05;;;3.10;1.00;;;;;;5035986;28;23039;-79
2021/12/21 06:44:43;;;;;;;20.02;11.57;;;3.10;1.00;;;;;;5042176;28;20415;-78
2021/12/21 06:52:39;;;;;;;18.00;9.85;;;3.10;1.00;;;;;;5034291;28;20222;-81
2021/12/21 06:55:07;;;;;;;13.90;9.52;;;3.20;1.00;;;;;;5036370;28;20246;-80
2021/12/21 06:57:37;;;;;;;15.75;9.55;;;3.20;1.00;;;;;;5052222;28;20436;-79
2021/12/21 07:00:05;;;;;;;13.55;8.55;;;3.20;1.00;;;;;;5040077;28;20803;-81
2021/12/21 07:02:32;;;;;;;19.15;8.38;;;3.10;1.00;;;;;;5035115;28;20400;-81
2021/12/21 07:05:01;;;;;;;17.08;9.82;;;3.10;1.00;;;;;;5031163;28;20253;-81
2021/12/21 07:07:28;;;;;;;15.77;9.35;;;3.10;1.00;;;;;;5033633;28;20226;-79
2021/12/21 07:10:00;;;;;;;14.73;9.52;;;3.10;1.00;;;;;;5031185;28;20317;-82
2021/12/21 07:17:59;;;;;;;15.18;10.48;;;3.10;1.00;;;;;;5040024;28;20700;-82
2021/12/21 07:20:44;;;;;;;39.55;21.45;;;3.10;1.00;;;;;;5044231;28;20368;-80
2021/12/21 07:23:11;;;;;;;11.77;8.90;;;3.10;1.00;;;;;;5026605;28;21428;-78
2021/12/21 07:25:38;;;;;;;10.80;7.85;;;3.10;1.00;;;;;;5032374;28;20281;-77
2021/12/21 07:28:05;;;;;;;13.73;8.52;;;3.10;1.00;;;;;;5030014;28;20278;-80
2021/12/21 07:30:32;;;;;;;15.77;12.38;;;3.20;1.00;;;;;;5030705;28;20234;-81
2021/12/21 07:32:58;;;;;;;11.00;7.78;;;3.10;1.00;;;;;;5033697;28;20383;-79
2021/12/21 07:35:25;;;;;;;17.48;9.20;;;3.10;1.00;;;;;;5034060;28;20286;-79
2021/12/21 07:37:53;;;;;;;16.33;9.10;;;3.10;1.00;;;;;;5033864;28;20720;-81
2021/12/21 07:40:20;;;;;;;17.55;10.85;;;3.10;1.00;;;;;;5030741;28;20238;-80
2021/12/21 07:42:47;;;;;;;21.63;10.65;;;3.10;1.00;;;;;;5030809;28;20226;-79
2021/12/21 07:45:15;;;;;;;16.10;9.93;;;3.10;1.00;;;;;;5035036;28;20233;-79
2021/12/21 07:47:42;;;;;;;14.07;9.43;;;3.10;1.00;;;;;;5038780;28;20245;-80
2021/12/21 07:50:09;;;;;;;13.20;9.00;;;3.10;1.00;;;;;;5035435;28;20217;-80
2021/12/21 07:52:36;;;;;;;11.77;8.40;;;3.10;1.00;;;;;;5037963;28;21293;-81
2021/12/21 07:55:06;;;;;;;13.82;9.38;;;3.10;1.00;;;;;;5035007;28;20563;-80
2021/12/21 07:57:33;;;;;;;15.05;9.88;;;3.20;1.00;;;;;;5033491;28;20320;-80
2021/12/21 08:00:03;;;;;;;15.80;9.60;;;3.20;1.00;;;;;;5036754;28;20724;-79
2021/12/21 08:02:31;;;;;;;20.70;10.65;;;3.10;1.00;;;;;;5035727;28;20244;-79
2021/12/21 08:04:58;;;;;;;11.27;8.35;;;3.20;1.00;;;;;;5038484;28;20252;-79
2021/12/21 08:07:32;;;;;;;10.57;9.35;;;3.20;1.00;;;;;;5050100;28;20197;-78
2021/12/21 08:10:06;;;;;;;16.13;10.85;;;3.20;1.00;;;;;;5051182;28;20276;-78
2021/12/21 08:12:35;;;;;;;16.15;10.13;;;3.30;1.00;;;;;;5049767;28;20225;-80
2021/12/21 08:15:02;;;;;;;15.35;10.00;;;3.30;1.00;;;;;;5061828;28;20297;-78
2021/12/21 08:17:28;;;;;;;16.20;9.07;;;3.40;1.00;;;;;;5059997;28;20272;-79
2021/12/21 08:19:55;;;;;;;18.30;10.93;;;3.50;1.00;;;;;;5045699;28;20324;-78
2021/12/21 08:22:22;;;;;;;10.45;8.50;;;3.50;1.00;;;;;;5046536;28;20264;-79
2021/12/21 08:24:48;;;;;;;11.75;9.35;;;3.50;1.00;;;;;;5049948;28;20244;-77
2021/12/21 08:27:15;;;;;;;13.80;8.07;;;3.50;1.00;;;;;;5038337;28;20780;-77
2021/12/21 08:29:43;;;;;;;12.10;9.20;;;3.50;1.00;;;;;;5039662;28;20301;-77
2021/12/21 08:32:11;;;;;;;13.43;8.18;;;3.50;1.00;;;;;;5031317;28;20233;-78
2021/12/21 08:34:40;;;;;;;17.10;9.75;;;3.50;1.00;;;;;;5034929;28;20210;-80
2021/12/21 08:37:07;;;;;;;20.58;16.75;;;3.60;1.00;;;;;;5026288;28;20240;-82
2021/12/21 08:39:39;;;;;;;15.10;9.75;;;3.70;1.00;;;;;;5033925;28;20237;-82
2021/12/21 08:42:07;;;;;;;17.50;9.75;;;3.80;1.00;;;;;;5044673;28;20448;-82
2021/12/21 08:44:34;;;;;;;24.63;9.27;;;3.80;1.00;;;;;;5026010;28;20242;-82
2021/12/21 08:47:03;;;;;;;14.95;9.82;;;3.80;1.00;;;;;;5030533;28;20242;-78
2021/12/21 08:49:30;;;;;;;17.05;9.70;;;3.80;1.00;;;;;;5029771;28;20811;-81
2021/12/21 08:51:58;;;;;;;14.43;9.55;;;3.90;1.00;;;;;;5031213;28;20237;-81
2021/12/21 08:54:24;;;;;;;21.25;11.10;;;3.90;1.00;;;;;;5033515;28;20214;-79
2021/12/21 08:56:52;;;;;;;15.93;9.25;;;3.90;1.00;;;;;;5035163;28;20218;-81
2021/12/21 08:59:19;;;;;;;11.77;8.52;;;4.00;1.00;;;;;;5034590;28;20248;-82
2021/12/21 09:01:47;;;;;;;15.32;8.98;;;4.10;1.00;;;;;;5036023;28;20281;-79
2021/12/21 09:04:18;;;;;;;21.10;10.32;;;4.10;1.00;;;;;;5035001;28;20260;-79
2021/12/21 09:06:44;;;;;;;15.95;9.70;;;4.10;1.00;;;;;;5036681;28;20236;-77
2021/12/21 09:09:11;;;;;;;18.35;10.35;;;4.20;1.00;;;;;;5032161;28;20232;-81
2021/12/21 09:11:38;;;;;;;16.10;10.50;;;4.30;1.00;;;;;;5033032;28;20234;-83
2021/12/21 09:14:05;;;;;;;14.15;9.93;;;4.30;1.00;;;;;;5041347;28;20305;-80
2021/12/21 09:16:32;;;;;;;19.88;11.18;;;4.30;1.00;;;;;;5070051;28;20240;-78
2021/12/21 09:19:00;;;;;;;18.55;11.27;;;4.40;1.00;;;;;;5046990;28;20241;-82
2021/12/21 09:21:29;;;;;;;20.70;10.30;;;4.40;1.00;;;;;;5032665;28;20376;-80
2021/12/21 09:23:55;;;;;;;19.65;10.68;;;4.50;1.00;;;;;;5032612;28;20261;-80
2021/12/21 09:26:22;;;;;;;16.80;9.73;;;4.70;1.00;;;;;;5039854;28;20229;-80
2021/12/21 09:28:49;;;;;;;15.38;9.95;;;4.70;1.00;;;;;;5032888;28;20243;-80
2021/12/21 09:31:17;;;;;;;15.60;9.55;;;4.70;1.00;;;;;;5033767;28;20253;-80
2021/12/21 09:33:44;;;;;;;14.80;10.20;;;4.70;1.00;;;;;;5054428;28;20226;-83
2021/12/21 09:36:11;;;;;;;14.93;8.98;;;4.70;1.00;;;;;;5040172;28;20281;-78
2021/12/21 09:38:39;;;;;;;14.25;10.00;;;4.70;1.00;;;;;;5058893;28;20277;-78
2021/12/21 09:41:06;;;;;;;18.40;11.43;;;4.60;1.00;;;;;;5032663;28;20278;-81
2021/12/21 09:43:33;;;;;;;15.00;9.27;;;4.70;1.00;;;;;;5031432;28;20304;-80
2021/12/21 09:45:59;;;;;;;21.63;11.30;;;4.70;1.00;;;;;;5036167;28;20869;-80
2021/12/21 09:48:28;;;;;;;16.95;13.10;;;4.60;1.00;;;;;;5039771;28;20217;-79
2021/12/21 09:50:55;;;;;;;15.10;9.40;;;4.60;1.00;;;;;;5034165;28;20240;-81
2021/12/21 09:53:23;;;;;;;13.57;9.85;;;4.70;1.00;;;;;;5035644;28;20220;-78
2021/12/21 09:55:51;;;;;;;14.70;9.20;;;4.60;1.00;;;;;;5049872;28;20268;-79
2021/12/21 09:58:18;;;;;;;14.90;9.63;;;4.60;1.00;;;;;;5026824;28;20225;-80
2021/12/21 10:00:45;;;;;;;15.63;11.23;;;4.60;1.00;;;;;;5030537;28;20284;-80
2021/12/21 10:03:14;;;;;;;14.70;9.90;;;4.50;1.00;;;;;;5045103;28;20322;-80
2021/12/21 10:05:43;;;;;;;12.10;8.88;;;4.50;1.00;;;;;;5029242;28;20237;-85
2021/12/21 10:08:12;;;;;;;14.15;10.30;;;4.40;1.00;;;;;;5032310;28;20346;-80
2021/12/21 10:10:40;;;;;;;11.32;9.52;;;4.40;1.00;;;;;;5034293;28;20281;-79
2021/12/21 10:13:11;;;;;;;16.70;9.43;;;4.40;1.00;;;;;;5049293;28;20285;-79
2021/12/21 10:15:40;;;;;;;18.23;9.55;;;4.30;1.00;;;;;;5059772;28;20289;-80
2021/12/21 10:18:07;;;;;;;16.83;9.45;;;4.30;1.00;;;;;;5060549;28;20232;-80
2021/12/21 10:20:37;;;;;;;12.85;9.02;;;4.30;1.00;;;;;;5060536;28;20225;-80
2021/12/21 10:23:09;;;;;;;14.25;9.20;;;4.40;1.00;;;;;;5058344;28;20918;-80
2021/12/21 10:25:41;;;;;;;40.85;22.90;;;4.60;1.00;;;;;;5059606;28;20233;-79
2021/12/21 10:28:10;;;;;;;17.00;10.63;;;4.60;1.00;;;;;;5064985;28;21469;-80
2021/12/21 10:30:48;;;;;;;12.52;9.90;;;4.70;1.00;;;;;;5064463;28;20226;-78
2021/12/21 10:33:15;;;;;;;15.00;8.85;;;4.80;1.00;;;;;;5069174;28;20292;-78
2021/12/21 10:35:42;;;;;;;14.73;10.82;;;4.80;1.00;;;;;;5061108;28;20214;-79
2021/12/21 10:38:09;;;;;;;15.10;11.45;;;4.80;1.00;;;;;;5054052;28;20328;-79
2021/12/21 10:40:39;;;;;;;15.70;9.70;;;4.80;1.00;;;;;;5050462;28;20292;-78
2021/12/21 10:43:09;;;;;;;18.55;10.25;;;4.70;1.00;;;;;;5051990;28;20553;-79
2021/12/21 10:45:40;;;;;;;14.45;9.88;;;4.50;1.00;;;;;;5055581;28;20264;-78
2021/12/21 10:48:11;;;;;;;17.10;9.23;;;4.50;1.00;;;;;;5054720;28;24630;-80
2021/12/21 10:50:37;;;;;;;19.17;9.52;;;4.40;1.00;;;;;;5036151;28;20291;-79
2021/12/21 10:53:06;;;;;;;15.55;9.57;;;4.30;1.00;;;;;;5033014;28;20257;-79
2021/12/21 10:55:35;;;;;;;13.63;9.35;;;4.30;1.00;;;;;;5035569;28;20313;-81
2021/12/21 10:58:04;;;;;;;15.88;9.27;;;4.30;1.00;;;;;;5030101;28;20248;-79
2021/12/21 11:00:31;;;;;;;13.48;8.23;;;4.40;1.00;;;;;;5037542;28;20221;-82
2021/12/21 11:02:59;;;;;;;12.55;9.30;;;4.40;1.00;;;;;;5034577;28;20230;-80
2021/12/21 11:05:28;;;;;;;14.38;8.30;;;4.50;1.00;;;;;;5033964;28;20228;-81
2021/12/21 11:07:59;;;;;;;14.90;10.18;;;4.50;1.00;;;;;;5033637;28;20249;-79
2021/12/21 11:10:30;;;;;;;20.25;12.25;;;4.50;1.00;;;;;;5029904;28;20240;-80
2021/12/21 11:12:59;;;;;;;16.17;10.93;;;4.50;1.00;;;;;;5057393;28;20224;-82
2021/12/21 11:15:29;;;;;;;17.58;11.68;;;4.60;1.00;;;;;;5065273;28;22640;-82
2021/12/21 11:18:07;;;;;;;26.10;10.13;;;4.60;1.00;;;;;;5065127;28;20239;-83
2021/12/21 11:20:37;;;;;;;15.88;9.35;;;4.60;1.00;;;;;;5067133;28;20244;-82
2021/12/21 11:23:08;;;;;;;18.30;10.43;;;4.70;1.00;;;;;;5058695;28;20285;-83
2021/12/21 11:25:37;;;;;;;18.63;12.30;;;4.70;1.00;;;;;;5052827;28;20242;-82
2021/12/21 11:28:06;;;;;;;15.45;10.18;;;4.60;1.00;;;;;;5054226;28;20291;-82
2021/12/21 11:30:35;;;;;;;21.20;11.18;;;4.50;1.00;;;;;;5066157;28;20242;-82
2021/12/21 11:33:07;;;;;;;18.55;10.77;;;4.60;1.00;;;;;;5055639;28;20270;-81
2021/12/21 11:38:19;;;;;;;10.50;8.63;;;4.60;1.00;;;;;;5071240;28;20289;-82
2021/12/21 11:40:47;;;;;;;25.08;11.75;;;4.60;1.00;;;;;;5063752;28;20323;-83
2021/12/21 11:43:22;;;;;;;18.45;10.98;;;4.50;1.00;;;;;;5048748;28;20227;-84
2021/12/21 11:45:53;;;;;;;19.73;10.85;;;4.50;1.00;;;;;;5048400;28;20441;-82
2021/12/21 11:48:31;;;;;;;14.68;10.75;;;4.50;1.00;;;;;;5047751;28;20221;-83
2021/12/21 11:51:04;;;;;;;16.63;11.70;;;4.60;1.00;;;;;;5053499;28;20229;-83
2021/12/21 11:53:32;;;;;;;21.20;14.35;;;4.90;1.00;;;;;;5035530;28;20301;-82
2021/12/21 11:55:58;;;;;;;19.67;12.43;;;5.20;1.00;;;;;;5034151;28;20347;-81
2021/12/21 11:58:27;;;;;;;14.82;10.73;;;5.10;1.00;;;;;;5023617;28;20327;-78
2021/12/21 12:00:57;;;;;;;18.75;11.15;;;5.10;1.00;;;;;;5033094;28;20225;-78
2021/12/21 12:03:29;;;;;;;27.00;19.63;;;5.00;1.00;;;;;;5026133;28;20230;-81
2021/12/21 12:05:59;;;;;;;19.55;11.73;;;4.90;1.00;;;;;;5027849;28;20278;-80
2021/12/21 12:08:27;;;;;;;19.20;10.23;;;4.90;1.00;;;;;;5024271;28;21046;-81
2021/12/21 12:10:57;;;;;;;22.40;13.68;;;4.80;1.00;;;;;;5030498;28;20282;-77
2021/12/21 12:13:30;;;;;;;21.23;12.43;;;4.80;1.00;;;;;;5026073;28;20221;-81
2021/12/21 12:16:00;;;;;;;20.52;11.13;;;4.70;1.00;;;;;;5033248;28;21865;-78
2021/12/21 12:18:34;;;;;;;18.98;12.15;;;4.70;1.00;;;;;;5035540;28;20272;-82
2021/12/21 12:21:17;;;;;;;16.80;10.50;;;4.60;1.00;;;;;;5038931;28;20254;-78
2021/12/21 12:23:48;;;;;;;24.35;11.80;;;4.60;1.00;;;;;;5053345;28;20221;-78
2021/12/21 12:26:24;;;;;;;18.67;12.30;;;4.60;1.00;;;;;;5032110;28;20252;-80
2021/12/21 12:28:52;;;;;;;20.15;11.50;;;4.70;1.00;;;;;;5038812;28;20229;-77
2021/12/21 12:31:33;;;;;;;21.58;13.55;;;4.80;1.00;;;;;;5042653;28;20303;-81
2021/12/21 12:34:02;;;;;;;14.38;10.55;;;4.80;1.00;;;;;;5039146;28;20670;-80
2021/12/21 12:36:47;;;;;;;17.33;11.10;;;4.80;1.00;;;;;;5044034;28;20345;-80
2021/12/21 12:39:30;;;;;;;26.27;12.70;;;4.80;1.00;;;;;;5044238;28;20226;-84
2021/12/21 12:42:05;;;;;;;21.00;13.35;;;4.70;1.00;;;;;;5048397;28;20233;-78
2021/12/21 12:44:32;;;;;;;14.88;10.05;;;4.60;1.00;;;;;;5046493;28;20224;-77
2021/12/21 12:47:03;;;;;;;18.95;11.68;;;4.60;1.00;;;;;;5039198;28;20277;-79
2021/12/21 12:49:34;;;;;;;19.15;10.85;;;4.60;1.00;;;;;;5040346;28;20282;-78
2021/12/21 12:52:11;;;;;;;14.73;11.10;;;4.60;1.00;;;;;;5047060;28;20367;-77
2021/12/21 12:54:52;;;;;;;17.15;11.50;;;4.50;1.00;;;;;;5040296;28;20223;-82
2021/12/21 12:57:32;;;;;;;16.02;10.05;;;4.40;1.00;;;;;;5041915;28;20237;-77
2021/12/21 13:00:10;;;;;;;20.83;13.35;;;4.40;1.00;;;;;;5041816;28;20230;-76
2021/12/21 13:02:51;;;;;;;23.15;11.90;;;4.30;1.00;;;;;;5041866;28;20787;-79
2021/12/21 13:05:20;;;;;;;19.63;11.75;;;4.30;1.00;;;;;;5056852;28;20235;-80
2021/12/21 13:07:47;;;;;;;21.30;11.07;;;4.20;1.00;;;;;;5053871;28;20222;-79
2021/12/21 13:10:13;;;;;;;12.50;11.20;;;4.20;1.00;;;;;;5037621;28;20244;-79
2021/12/21 13:12:40;;;;;;;11.57;9.73;;;4.30;1.00;;;;;;5041099;28;20226;-78
2021/12/21 13:15:08;;;;;;;15.20;11.88;;;4.20;1.00;;;;;;5044106;28;20350;-80
2021/12/21 13:17:35;;;;;;;17.15;12.18;;;4.20;1.00;;;;;;5045610;28;20222;-77
2021/12/21 13:20:04;;;;;;;20.70;12.05;;;4.20;1.00;;;;;;5047135;28;20237;-78
2021/12/21 13:22:32;;;;;;;19.67;12.52;;;4.10;1.00;;;;;;5046321;28;20360;-79
2021/12/21 13:24:58;;;;;;;17.00;12.32;;;4.00;1.00;;;;;;5045323;28;20302;-78
2021/12/21 13:27:27;;;;;;;19.45;10.70;;;4.00;1.00;;;;;;5060146;28;20229;-77
2021/12/21 13:29:54;;;;;;;19.90;11.05;;;3.90;1.00;;;;;;5054635;28;20222;-76
2021/12/21 13:32:22;;;;;;;17.73;10.70;;;3.90;1.00;;;;;;5042915;28;20322;-79
2021/12/21 13:34:53;;;;;;;15.30;10.15;;;3.80;1.00;;;;;;5040848;28;21371;-78
2021/12/21 13:37:22;;;;;;;18.88;11.63;;;3.80;1.00;;;;;;5042149;28;20218;-77
2021/12/21 13:39:56;;;;;;;27.02;16.10;;;3.70;1.00;;;;;;5035610;28;20383;-78
2021/12/21 13:42:27;;;;;;;21.20;12.10;;;3.70;1.00;;;;;;5039869;28;20217;-80
2021/12/21 13:44:56;;;;;;;23.70;12.57;;;3.70;1.00;;;;;;5035716;28;20229;-77
2021/12/21 13:47:24;;;;;;;17.73;10.85;;;3.60;1.00;;;;;;5033167;28;20234;-80